Fitze, Texas
Current Conditions -  °F | °C
As of 2:55 PM on Tuesday 27 Jan 2015 (Local Time) from KOCH Reporting Station
Clear Clear  
Wind Chill: 77°   Ceiling: Unl
Heat Index: 78°   Visibility: 10mi
Dew Point: 43°   Wind: 3mph
Humidity: 29%   Direction: 10°N
Pressure: 30.11"   Gusts: NA
Location:  31.7931°N, 94.5281°W
Report Text: KOCH 272055Z 01003KT 10SM CLR 25/06 A3011 RMK AO1 57020
Loading
Personal Weather Stations






























Interactive Weather Map New forecast layout! Learn more

10-Day Weather Forecast

Advertisements
Track Severe Weather on mobile